createdAt,value
2023-04-22T00:02:17.787Z,10.48
2023-04-22T00:04:46.774Z,10.30
2023-04-22T00:07:15.494Z,13.10
2023-04-22T00:09:44.566Z,10.60
2023-04-22T00:12:13.288Z,10.18
2023-04-22T00:14:41.783Z,9.70
2023-04-22T00:17:12.720Z,9.63
2023-04-22T00:19:43.850Z,8.93
2023-04-22T00:22:12.234Z,9.18
2023-04-22T00:24:40.842Z,9.20
2023-04-22T00:27:09.536Z,10.07
2023-04-22T00:29:38.325Z,8.95
2023-04-22T00:32:07.099Z,9.10
2023-04-22T00:34:35.516Z,8.68
2023-04-22T00:37:05.289Z,8.50
2023-04-22T00:39:33.714Z,8.95
2023-04-22T00:42:03.092Z,8.85
2023-04-22T00:44:31.966Z,8.73
2023-04-22T00:47:00.795Z,8.82
2023-04-22T00:49:29.420Z,8.73
2023-04-22T00:51:57.865Z,9.35
2023-04-22T00:54:28.805Z,8.57
2023-04-22T00:56:58.861Z,9.32
2023-04-22T00:59:27.401Z,9.15
2023-04-22T01:01:55.913Z,9.77
2023-04-22T01:04:25.069Z,9.52
2023-04-22T01:06:54.172Z,8.82
2023-04-22T01:09:22.606Z,8.52
2023-04-22T01:11:52.400Z,9.23
2023-04-22T01:14:20.822Z,8.60
2023-04-22T01:16:49.289Z,8.95
2023-04-22T01:19:18.099Z,9.27
2023-04-22T01:21:46.926Z,9.55
2023-04-22T01:24:19.937Z,9.03
2023-04-22T01:26:48.597Z,9.10
2023-04-22T01:29:17.137Z,9.23
2023-04-22T01:31:45.677Z,8.90
2023-04-22T01:34:14.211Z,9.30
2023-04-22T01:36:42.607Z,9.38
2023-04-22T01:39:13.412Z,9.02
2023-04-22T01:41:43.640Z,9.55
2023-04-22T01:44:14.183Z,9.48
2023-04-22T01:46:42.654Z,9.77
2023-04-22T01:49:11.238Z,10.32
2023-04-22T01:51:39.622Z,9.38
2023-04-22T01:54:08.084Z,9.38
2023-04-22T01:56:38.722Z,9.18
2023-04-22T01:59:08.504Z,10.10
2023-04-22T02:01:39.028Z,10.25
2023-04-22T02:04:08.310Z,10.30
2023-04-22T02:06:36.913Z,10.73
2023-04-22T02:09:07.560Z,9.27
2023-04-22T02:11:35.988Z,11.27
2023-04-22T02:14:04.429Z,9.82
2023-04-22T02:16:34.266Z,9.93
2023-04-22T02:19:02.777Z,10.30
2023-04-22T02:21:32.270Z,9.35
2023-04-22T02:24:00.716Z,9.38
2023-04-22T02:26:30.832Z,10.63
2023-04-22T02:28:59.735Z,10.93
2023-04-22T02:31:28.778Z,10.38
2023-04-22T02:33:58.725Z,9.77
2023-04-22T02:36:28.691Z,9.98
2023-04-22T02:38:57.414Z,9.43
2023-04-22T02:41:26.121Z,10.13
2023-04-22T02:43:54.571Z,10.50
2023-04-22T02:46:23.232Z,9.75
2023-04-22T02:48:51.859Z,10.20
2023-04-22T02:51:21.914Z,9.77
2023-04-22T02:53:52.935Z,10.55
2023-04-22T02:56:21.891Z,9.32
2023-04-22T02:58:50.331Z,9.38
2023-04-22T03:01:19.214Z,9.88
2023-04-22T03:03:48.505Z,10.65
2023-04-22T03:06:24.162Z,9.75
2023-04-22T03:08:52.934Z,9.90
2023-04-22T03:11:21.516Z,9.60
2023-04-22T03:13:49.879Z,10.80
2023-04-22T03:16:19.069Z,10.68
2023-04-22T03:18:48.487Z,9.38
2023-04-22T03:21:17.170Z,9.80
2023-04-22T03:23:47.665Z,9.27
2023-04-22T03:26:16.161Z,10.32
2023-04-22T03:28:44.673Z,9.90
2023-04-22T03:31:13.054Z,10.07
2023-04-22T03:33:41.648Z,10.55
2023-04-22T03:36:19.537Z,9.60
2023-04-22T03:38:52.076Z,10.50
2023-04-22T03:41:21.235Z,10.27
2023-04-22T03:43:50.303Z,10.40
2023-04-22T03:46:19.454Z,10.13
2023-04-22T03:48:59.560Z,10.90
2023-04-22T03:51:31.262Z,11.07
2023-04-22T03:54:05.280Z,10.48
2023-04-22T03:56:37.529Z,11.40
2023-04-22T03:59:06.666Z,10.57
2023-04-22T04:01:36.138Z,10.93
2023-04-22T04:04:08.075Z,10.88
2023-04-22T04:06:56.989Z,10.98
2023-04-22T04:09:26.767Z,10.65
2023-04-22T04:11:55.336Z,11.50
2023-04-22T04:14:24.077Z,11.25
2023-04-22T04:16:53.532Z,11.82
2023-04-22T04:19:33.599Z,10.90
2023-04-22T04:22:02.178Z,10.93
2023-04-22T04:24:42.086Z,9.88
2023-04-22T04:27:17.074Z,11.07
2023-04-22T04:29:52.617Z,11.65
2023-04-22T04:32:47.297Z,11.15
2023-04-22T04:35:20.240Z,10.63
2023-04-22T04:37:53.777Z,11.45
2023-04-22T04:40:23.623Z,11.00
2023-04-22T04:45:55.367Z,10.82
2023-04-22T04:48:36.337Z,10.93
2023-04-22T04:51:10.079Z,10.60
2023-04-22T04:53:44.329Z,10.88
2023-04-22T04:56:14.579Z,10.65
2023-04-22T04:58:43.644Z,10.57
2023-04-22T05:01:25.022Z,10.05
2023-04-22T05:03:54.530Z,10.40
2023-04-22T05:06:23.107Z,11.15
2023-04-22T05:08:56.882Z,11.23
2023-04-22T05:11:26.732Z,10.57
2023-04-22T05:13:56.545Z,10.55
2023-04-22T05:16:33.170Z,10.88
2023-04-22T05:19:02.174Z,10.70
2023-04-22T05:21:31.386Z,10.88
2023-04-22T05:24:01.318Z,10.02
2023-04-22T05:26:31.894Z,10.68
2023-04-22T05:29:01.025Z,10.77
2023-04-22T05:31:29.774Z,11.55
2023-04-22T05:34:00.068Z,10.43
2023-04-22T05:36:31.432Z,11.52
2023-04-22T05:39:09.570Z,11.07
2023-04-22T05:41:39.558Z,10.73
2023-04-22T05:44:11.146Z,11.43
2023-04-22T05:46:40.092Z,10.77
2023-04-22T05:49:09.171Z,10.13
2023-04-22T05:51:56.195Z,10.13
2023-04-22T05:54:30.063Z,10.30
2023-04-22T05:57:00.507Z,10.15
2023-04-22T05:59:28.990Z,9.70
2023-04-22T06:01:57.962Z,10.07
2023-04-22T06:04:27.172Z,10.02
2023-04-22T06:07:02.608Z,9.90
2023-04-22T06:09:32.089Z,10.02
2023-04-22T06:12:02.026Z,10.50
2023-04-22T06:14:30.758Z,10.00
2023-04-22T06:16:59.160Z,10.27
2023-04-22T06:19:27.862Z,10.40
2023-04-22T06:21:56.327Z,9.50
2023-04-22T06:24:25.418Z,9.30
2023-04-22T06:26:58.106Z,10.52
2023-04-22T06:29:29.793Z,10.13
2023-04-22T06:31:58.272Z,9.63
2023-04-22T06:34:26.863Z,9.73
2023-04-22T06:36:55.705Z,9.15
2023-04-22T06:39:24.266Z,9.52
2023-04-22T06:42:11.422Z,9.65
2023-04-22T06:44:52.364Z,8.98
2023-04-22T06:47:43.945Z,9.40
2023-04-22T06:50:18.008Z,10.02
2023-04-22T06:52:56.317Z,9.43
2023-04-22T06:55:26.278Z,9.45
2023-04-22T06:57:54.706Z,9.27
2023-04-22T07:00:25.563Z,9.15
2023-04-22T07:02:54.137Z,9.18
2023-04-22T07:05:22.843Z,9.18
2023-04-22T07:07:51.370Z,10.20
2023-04-22T07:10:22.909Z,9.60
2023-04-22T07:13:09.588Z,9.75
2023-04-22T07:15:39.349Z,9.90
2023-04-22T07:18:07.803Z,9.20
2023-04-22T07:20:36.170Z,9.80
2023-04-22T07:23:04.651Z,10.10
2023-04-22T07:25:33.028Z,9.25
2023-04-22T07:28:01.350Z,9.68
2023-04-22T07:30:29.727Z,9.77
2023-04-22T07:32:59.587Z,9.52
2023-04-22T07:35:31.619Z,9.32
2023-04-22T07:38:00.042Z,10.25
2023-04-22T07:40:28.421Z,9.35
2023-04-22T07:42:56.886Z,9.07
2023-04-22T07:45:25.276Z,8.90
2023-04-22T07:47:53.750Z,10.32
2023-04-22T07:50:23.679Z,10.63
2023-04-22T07:52:52.283Z,9.48
2023-04-22T07:55:20.677Z,10.02
2023-04-22T07:57:49.097Z,9.82
2023-04-22T08:00:17.763Z,9.32
2023-04-22T08:02:47.469Z,9.50
2023-04-22T08:05:16.035Z,9.77
2023-04-22T08:07:46.319Z,9.70
2023-04-22T08:10:14.814Z,10.23
2023-04-22T08:12:43.195Z,9.35
2023-04-22T08:15:12.255Z,10.18
2023-04-22T08:17:40.920Z,9.43
2023-04-22T08:20:10.177Z,9.48
2023-04-22T08:22:38.779Z,9.23
2023-04-22T08:25:09.411Z,9.20
2023-04-22T08:27:37.941Z,9.35
2023-04-22T08:30:07.104Z,8.88
2023-04-22T08:32:35.528Z,9.60
2023-04-22T08:35:05.174Z,9.55
2023-04-22T08:37:34.005Z,8.63
2023-04-22T08:40:02.449Z,8.90
2023-04-22T08:42:35.384Z,9.00
2023-04-22T08:45:05.504Z,11.48
2023-04-22T08:47:34.293Z,9.75
2023-04-22T08:50:04.465Z,8.73
2023-04-22T08:52:33.169Z,8.68
2023-04-22T08:55:02.100Z,9.23
2023-04-22T08:57:31.260Z,9.10
2023-04-22T09:00:01.434Z,8.35
2023-04-22T09:02:31.147Z,8.45
2023-04-22T09:05:00.055Z,9.35
2023-04-22T09:07:29.224Z,8.45
2023-04-22T09:09:57.952Z,10.35
2023-04-22T09:12:27.083Z,8.32
2023-04-22T09:14:56.094Z,8.45
2023-04-22T09:17:33.429Z,8.82
2023-04-22T09:20:02.281Z,8.20
2023-04-22T09:22:38.627Z,8.40
2023-04-22T09:25:07.501Z,7.65
2023-04-22T09:27:37.317Z,7.05
2023-04-22T09:30:10.210Z,7.03
2023-04-22T09:32:41.596Z,8.00
2023-04-22T09:35:10.775Z,8.40
2023-04-22T09:37:48.851Z,7.65
2023-04-22T09:40:20.039Z,7.13
2023-04-22T09:42:49.881Z,7.35
2023-04-22T09:45:27.151Z,7.20
2023-04-22T09:47:57.792Z,7.57
2023-04-22T09:50:27.440Z,7.18
2023-04-22T09:52:56.953Z,7.05
2023-04-22T09:55:26.367Z,7.03
2023-04-22T09:57:55.617Z,6.95
2023-04-22T10:00:24.670Z,6.82
2023-04-22T10:02:53.194Z,6.68
2023-04-22T10:05:24.211Z,7.07
2023-04-22T10:07:53.171Z,7.07
2023-04-22T10:10:21.857Z,6.82
2023-04-22T10:12:53.631Z,6.95
2023-04-22T10:15:22.240Z,5.82
2023-04-22T10:17:54.143Z,6.82
2023-04-22T10:20:24.750Z,6.85
2023-04-22T10:22:55.046Z,6.82
2023-04-22T10:25:24.543Z,6.15
2023-04-22T10:27:56.445Z,6.85
2023-04-22T10:30:31.219Z,6.50
2023-04-22T10:33:31.717Z,6.60
2023-04-22T10:36:09.273Z,6.65
2023-04-22T10:38:38.274Z,6.70
2023-04-22T10:41:06.824Z,6.03
2023-04-22T10:43:43.783Z,6.10
2023-04-22T10:46:27.161Z,6.72
2023-04-22T10:48:58.699Z,6.82
2023-04-22T10:51:43.962Z,7.95
2023-04-22T10:54:38.026Z,6.90
2023-04-22T10:57:08.355Z,5.72
2023-04-22T10:59:37.725Z,6.20
2023-04-22T11:02:07.301Z,6.30
2023-04-22T11:04:37.293Z,6.00
2023-04-22T11:07:15.444Z,6.50
2023-04-22T11:09:45.180Z,7.25
2023-04-22T11:12:32.082Z,6.40
2023-04-22T11:15:02.324Z,6.05
2023-04-22T11:17:32.605Z,6.15
2023-04-22T11:20:04.820Z,6.13
2023-04-22T11:22:36.876Z,5.68
2023-04-22T11:25:09.989Z,5.80
2023-04-22T11:27:38.706Z,5.85
2023-04-22T11:30:09.645Z,6.00
2023-04-22T11:32:38.687Z,7.03
2023-04-22T11:35:08.418Z,5.80
2023-04-22T11:37:41.902Z,5.65
2023-04-22T11:40:29.378Z,6.25
2023-04-22T11:42:59.991Z,5.90
2023-04-22T11:45:30.147Z,5.75
2023-04-22T11:47:58.991Z,5.93
2023-04-22T11:50:29.161Z,5.78
2023-04-22T11:52:59.007Z,5.93
2023-04-22T11:55:31.488Z,6.43
2023-04-22T11:58:00.931Z,6.32
2023-04-22T12:00:34.624Z,5.90
2023-04-22T12:03:04.312Z,5.70
2023-04-22T12:05:37.291Z,6.15
2023-04-22T12:08:08.046Z,6.10
2023-04-22T12:10:41.021Z,6.40
2023-04-22T12:13:09.838Z,5.85
2023-04-22T12:15:43.600Z,6.35
2023-04-22T12:18:14.326Z,5.72
2023-04-22T12:20:43.283Z,6.22
2023-04-22T12:23:15.477Z,6.72
2023-04-22T12:25:44.629Z,7.60
2023-04-22T12:28:14.308Z,7.00
2023-04-22T12:30:44.265Z,6.78
2023-04-22T12:33:12.765Z,6.22
2023-04-22T12:35:41.585Z,5.68
2023-04-22T12:38:10.050Z,5.50
2023-04-22T12:40:38.487Z,6.40
2023-04-22T12:43:06.903Z,6.85
2023-04-22T12:45:35.345Z,7.90
2023-04-22T12:48:05.339Z,6.85
2023-04-22T12:50:33.792Z,6.30
2023-04-22T12:53:04.825Z,6.63
2023-04-22T12:55:33.482Z,6.55
2023-04-22T12:58:01.897Z,7.80
2023-04-22T13:00:30.601Z,6.65
2023-04-22T13:02:59.188Z,5.68
2023-04-22T13:05:29.077Z,7.13
2023-04-22T13:08:06.415Z,6.97
2023-04-22T13:10:35.508Z,7.18
2023-04-22T13:13:17.062Z,5.90
2023-04-22T13:15:47.720Z,8.70
2023-04-22T13:18:17.248Z,8.10
2023-04-22T13:20:47.706Z,6.47
2023-04-22T13:23:16.959Z,7.38
2023-04-22T13:25:45.833Z,7.03
2023-04-22T13:28:14.219Z,6.60
2023-04-22T13:30:42.700Z,6.20
2023-04-22T13:33:11.181Z,8.15
2023-04-22T13:35:39.645Z,7.75
2023-04-22T13:38:09.515Z,6.30
2023-04-22T13:40:37.980Z,8.32
2023-04-22T13:43:06.931Z,10.35
2023-04-22T13:45:35.463Z,6.88
2023-04-22T13:48:03.983Z,7.07
2023-04-22T13:50:32.581Z,6.32
2023-04-22T13:53:01.079Z,6.55
2023-04-22T13:55:30.943Z,6.57
2023-04-22T13:58:01.096Z,7.70
2023-04-22T14:00:29.616Z,9.77
2023-04-22T14:02:58.157Z,8.55
2023-04-22T14:05:30.179Z,8.40
2023-04-22T14:07:58.655Z,9.70
2023-04-22T14:10:28.708Z,7.60
2023-04-22T14:12:58.722Z,6.75
2023-04-22T14:15:27.100Z,9.20
2023-04-22T14:17:55.505Z,7.25
2023-04-22T14:20:25.878Z,7.43
2023-04-22T14:22:54.345Z,7.95
2023-04-22T14:25:23.208Z,5.70
2023-04-22T14:27:53.882Z,5.63
2023-04-22T14:30:23.875Z,6.55
2023-04-22T14:32:52.366Z,5.90
2023-04-22T14:35:21.114Z,6.05
2023-04-22T14:37:49.668Z,6.30
2023-04-22T14:40:20.003Z,7.13
2023-04-22T14:42:48.423Z,8.23
2023-04-22T14:45:16.940Z,9.38
2023-04-22T14:47:46.835Z,9.73
2023-04-22T14:50:15.254Z,6.47
2023-04-22T14:52:45.971Z,7.40
2023-04-22T14:55:23.204Z,8.30
2023-04-22T14:57:52.900Z,9.32
2023-04-22T15:00:21.575Z,10.52
2023-04-22T15:02:51.434Z,7.07
2023-04-22T15:05:19.968Z,5.97
2023-04-22T15:07:48.342Z,5.97
2023-04-22T15:10:17.482Z,5.97
2023-04-22T15:12:48.197Z,5.40
2023-04-22T15:15:18.267Z,9.18
2023-04-22T15:17:46.864Z,8.18
2023-04-22T15:20:16.680Z,7.03
2023-04-22T15:22:45.588Z,6.95
2023-04-22T15:25:15.473Z,6.57
2023-04-22T15:27:45.279Z,5.90
2023-04-22T15:30:14.453Z,5.38
2023-04-22T15:32:42.959Z,5.93
2023-04-22T15:35:11.941Z,6.20
2023-04-22T15:37:41.767Z,5.95
2023-04-22T15:40:10.554Z,6.65
2023-04-22T15:42:39.043Z,6.15
2023-04-22T15:45:13.133Z,5.65
2023-04-22T15:47:42.252Z,5.95
2023-04-22T15:50:11.793Z,10.93
2023-04-22T15:52:43.856Z,5.90
2023-04-22T15:55:12.414Z,6.50
2023-04-22T15:57:40.955Z,5.45
2023-04-22T16:00:13.084Z,5.45
2023-04-22T16:02:43.204Z,5.20
2023-04-22T16:05:12.459Z,5.25
2023-04-22T16:07:41.241Z,7.10
2023-04-22T16:10:11.935Z,5.97
2023-04-22T16:12:40.369Z,6.07
2023-04-22T16:15:11.590Z,5.78
2023-04-22T16:17:40.163Z,6.07
2023-04-22T16:20:09.514Z,4.93
2023-04-22T16:22:38.080Z,4.82
2023-04-22T16:25:06.983Z,5.38
2023-04-22T16:27:36.726Z,5.13
2023-04-22T16:30:05.665Z,5.40
2023-04-22T16:32:34.069Z,6.10
2023-04-22T16:35:02.518Z,6.05
2023-04-22T16:37:30.968Z,6.45
2023-04-22T16:39:59.490Z,5.72
2023-04-22T16:42:28.000Z,5.10
2023-04-22T16:44:57.706Z,5.75
2023-04-22T16:47:28.200Z,6.30
2023-04-22T16:49:56.806Z,7.47
2023-04-22T16:52:25.278Z,6.18
2023-04-22T16:54:53.676Z,7.72
2023-04-22T16:57:22.057Z,6.20
2023-04-22T16:59:50.453Z,5.63
2023-04-22T17:02:20.375Z,6.07
2023-04-22T17:04:48.876Z,6.10
2023-04-22T17:07:17.299Z,6.70
2023-04-22T17:09:45.736Z,5.57
2023-04-22T17:12:14.453Z,6.10
2023-04-22T17:14:42.905Z,6.97
2023-04-22T17:17:11.457Z,7.40
2023-04-22T17:19:42.928Z,7.45
2023-04-22T17:22:12.097Z,6.87
2023-04-22T17:24:40.563Z,6.72
2023-04-22T17:27:09.039Z,6.45
2023-04-22T17:29:40.202Z,6.93
2023-04-22T17:32:08.837Z,7.22
2023-04-22T17:34:37.270Z,7.03
2023-04-22T17:37:07.032Z,6.30
2023-04-22T17:39:35.813Z,6.20
2023-04-22T17:42:04.203Z,6.32
2023-04-22T17:44:32.618Z,6.97
2023-04-22T17:47:01.098Z,6.85
2023-04-22T17:49:29.596Z,6.95
2023-04-22T17:51:57.989Z,7.63
2023-04-22T17:54:27.840Z,7.10
2023-04-22T17:56:56.214Z,7.32
2023-04-22T17:59:24.558Z,7.38
2023-04-22T18:01:53.307Z,8.68
2023-04-22T18:04:21.734Z,9.02
2023-04-22T18:06:50.222Z,8.85
2023-04-22T18:09:18.621Z,7.60
2023-04-22T18:11:48.447Z,7.97
2023-04-22T18:14:17.027Z,7.78
2023-04-22T18:16:45.420Z,8.48
2023-04-22T18:19:14.013Z,8.45
2023-04-22T18:21:52.859Z,8.23
2023-04-22T18:24:27.822Z,8.90
2023-04-22T18:26:57.984Z,8.90
2023-04-22T18:29:26.393Z,8.73
2023-04-22T18:31:54.981Z,8.80
2023-04-22T18:34:23.589Z,8.73
2023-04-22T18:36:52.413Z,8.98
2023-04-22T18:39:21.252Z,9.18
2023-04-22T18:41:49.735Z,9.05
2023-04-22T18:44:22.156Z,9.63
2023-04-22T18:46:52.274Z,9.80
2023-04-22T18:49:20.732Z,9.93
2023-04-22T18:51:49.537Z,9.50
2023-04-22T18:54:17.962Z,9.05
2023-04-22T18:56:46.422Z,9.77
2023-04-22T18:59:14.959Z,10.02
2023-04-22T19:01:46.828Z,9.00
2023-04-22T19:04:15.492Z,9.57
2023-04-22T19:06:43.926Z,10.73
2023-04-22T19:09:12.399Z,11.27
2023-04-22T19:11:40.824Z,10.80
2023-04-22T19:14:09.432Z,11.07
2023-04-22T19:16:37.824Z,11.07
2023-04-22T19:19:07.698Z,11.25
2023-04-22T19:21:36.070Z,11.38
2023-04-22T19:24:04.930Z,10.75
2023-04-22T19:26:33.362Z,10.40
2023-04-22T19:29:01.733Z,10.38
2023-04-22T19:31:30.467Z,10.43
2023-04-22T19:33:59.218Z,10.60
2023-04-22T19:36:29.158Z,10.63
2023-04-22T19:38:57.528Z,11.45
2023-04-22T19:41:26.015Z,11.40
2023-04-22T19:43:58.969Z,11.80
2023-04-22T19:46:27.517Z,10.90
2023-04-22T19:48:56.527Z,11.45
2023-04-22T19:51:24.941Z,10.80
2023-04-22T19:53:56.142Z,11.05
2023-04-22T19:56:24.648Z,10.55
2023-04-22T19:58:53.594Z,11.32
2023-04-22T20:01:22.481Z,10.75
2023-04-22T20:03:53.383Z,11.02
2023-04-22T20:06:24.528Z,11.18
2023-04-22T20:08:54.222Z,10.73
2023-04-22T20:11:25.845Z,10.57
2023-04-22T20:13:54.604Z,10.95
2023-04-22T20:16:24.156Z,11.30
2023-04-22T20:18:52.826Z,10.75
2023-04-22T20:21:21.515Z,10.40
2023-04-22T20:23:53.994Z,11.77
2023-04-22T20:26:24.337Z,11.20
2023-04-22T20:28:53.995Z,11.68
2023-04-22T20:31:24.242Z,10.75
2023-04-22T20:33:53.255Z,12.10
2023-04-22T20:36:22.669Z,11.82
2023-04-22T20:38:52.169Z,11.18
2023-04-22T20:41:21.199Z,10.93
2023-04-22T20:43:51.078Z,12.90
2023-04-22T20:46:23.114Z,12.13
2023-04-22T20:48:52.355Z,13.25
2023-04-22T20:51:20.842Z,12.60
2023-04-22T20:53:50.535Z,12.43
2023-04-22T20:56:19.568Z,11.75
2023-04-22T20:58:48.287Z,12.05
2023-04-22T21:01:19.503Z,11.85
2023-04-22T21:03:51.778Z,12.25
2023-04-22T21:06:21.821Z,12.02
2023-04-22T21:08:50.577Z,11.70
2023-04-22T21:11:19.313Z,11.63
2023-04-22T21:13:48.717Z,11.57
2023-04-22T21:16:20.184Z,13.63
2023-04-22T21:18:51.630Z,13.07
2023-04-22T21:21:21.291Z,11.90
2023-04-22T21:23:49.958Z,11.70
2023-04-22T21:26:19.104Z,10.95
2023-04-22T21:28:47.760Z,10.10
2023-04-22T21:31:21.078Z,11.45
2023-04-22T21:33:49.455Z,11.65
2023-04-22T21:36:17.956Z,11.00
2023-04-22T21:38:46.840Z,11.75
2023-04-22T21:41:15.303Z,11.20
2023-04-22T21:43:43.832Z,11.27
2023-04-22T21:46:12.250Z,11.07
2023-04-22T21:48:42.042Z,11.40
2023-04-22T21:51:10.751Z,11.25
2023-04-22T21:53:39.156Z,10.93
2023-04-22T21:56:08.463Z,11.23
2023-04-22T21:58:36.886Z,11.70
2023-04-22T22:01:05.323Z,11.90
2023-04-22T22:03:33.944Z,10.95
2023-04-22T22:06:03.805Z,12.15
2023-04-22T22:08:32.633Z,12.05
2023-04-22T22:11:03.816Z,11.90
2023-04-22T22:13:32.234Z,11.20
2023-04-22T22:16:00.652Z,11.55
2023-04-22T22:18:29.212Z,12.50
2023-04-22T22:20:57.593Z,10.75
2023-04-22T22:23:27.395Z,11.30
2023-04-22T22:25:55.781Z,10.95
2023-04-22T22:28:24.194Z,11.15
2023-04-22T22:30:52.596Z,11.52
2023-04-22T22:33:20.946Z,11.43
2023-04-22T22:35:49.340Z,10.68
2023-04-22T22:38:17.813Z,10.40
2023-04-22T22:40:47.584Z,11.00
2023-04-22T22:43:16.104Z,10.65
2023-04-22T22:45:44.663Z,10.82
2023-04-22T22:48:13.081Z,9.93
2023-04-22T22:50:41.804Z,10.35
2023-04-22T22:53:10.282Z,11.27
2023-04-22T22:55:38.692Z,11.32
2023-04-22T22:58:08.432Z,10.80
2023-04-22T23:00:36.828Z,11.30
2023-04-22T23:03:05.610Z,10.77
2023-04-22T23:05:34.044Z,10.23
2023-04-22T23:08:02.442Z,10.48
2023-04-22T23:10:30.893Z,10.38
2023-04-22T23:12:59.366Z,9.90
2023-04-22T23:15:29.057Z,10.63
2023-04-22T23:17:57.510Z,10.52
2023-04-22T23:20:26.207Z,10.20
2023-04-22T23:22:57.626Z,11.05
2023-04-22T23:25:26.280Z,10.32
2023-04-22T23:27:54.779Z,10.15
2023-04-22T23:30:23.817Z,10.07
2023-04-22T23:32:53.842Z,10.35
2023-04-22T23:35:22.243Z,10.35
2023-04-22T23:37:53.728Z,10.82
2023-04-22T23:40:22.119Z,9.93
2023-04-22T23:42:52.783Z,10.95
2023-04-22T23:45:21.227Z,10.13
2023-04-22T23:47:49.630Z,10.55
2023-04-22T23:50:22.072Z,9.93
2023-04-22T23:52:50.486Z,10.25
2023-04-22T23:55:19.330Z,10.07
2023-04-22T23:57:48.019Z,10.57
